Time;durP1;ratioP1;P1;durP2;ratioP2;P2;SDS_P1;SDS_P2;PMS_P1;PMS_P2;Temp;Humidity;BMP_temperature;BMP_pressure;BME280_temperature;BME280_humidity;BME280_pressure;Samples;Min_cycle;Max_cycle;Signal;HPM_P1;HPM_P2
2022/10/12 00:01:58;;;;;;;;;;;;;;;13.52;59.93;100497.53;4469768;32;21173;-84
2022/10/12 00:04:23;;;;;;;;;;;;;;;13.53;59.93;100498.37;4469755;32;33613;-84
2022/10/12 00:06:48;;;;;;;;;;;;;;;13.61;59.93;100492.88;4460195;32;36126;-84
2022/10/12 00:09:13;;;;;;;;;;;;;;;13.71;59.93;100489.06;4458004;32;20057;-84
2022/10/12 00:11:40;;;;;;;;;;;;;;;13.63;59.93;100494.53;4484133;32;33033;-84
2022/10/12 00:14:05;;;;;;;;;;;;;;;13.66;59.93;100493.59;4458154;32;19973;-84
2022/10/12 00:16:30;;;;;;;;;;;;;;;13.70;59.93;100493.44;4474475;32;31938;-84
2022/10/12 00:18:55;;;;;;;;;;;;;;;13.75;59.94;100490.69;4485028;32;20002;-84
2022/10/12 00:21:21;;;;;;;;;;;;;;;13.76;59.94;100490.63;4459462;32;20033;-84
2022/10/12 00:23:46;;;;;;;;;;;;;;;13.80;59.94;100492.25;4448870;32;20330;-83
2022/10/12 00:26:12;;;;;;;;;;;;;;;13.77;59.94;100492.34;4472344;32;20037;-83
2022/10/12 00:28:37;;;;;;;;;;;;;;;13.68;59.93;100486.53;4463096;32;19989;-83
2022/10/12 00:31:09;;;;;;;;;;;;;;;13.82;59.94;100495.66;4483155;32;31786;-83
2022/10/12 00:33:36;;;;;;;;;;;;;;;13.80;59.94;100494.84;4481655;32;19973;-84
2022/10/12 00:36:09;;;;;;;;;;;;;;;13.76;59.94;100495.00;4450744;32;20044;-84
2022/10/12 00:38:34;;;;;;;;;;;;;;;13.73;59.94;100492.50;4467850;32;20056;-83
2022/10/12 00:41:00;;;;;;;;;;;;;;;13.65;59.94;100491.88;4475961;32;36136;-83
2022/10/12 00:43:29;;;;;;;;;;;;;;;13.70;59.93;100489.97;4470116;32;29125;-84
2022/10/12 00:45:54;;;;;;;;;;;;;;;13.73;59.94;100488.13;4492648;32;19961;-83
2022/10/12 00:48:19;;;;;;;;;;;;;;;13.64;59.94;100485.78;4485460;32;20324;-83
2022/10/12 00:50:44;;;;;;;;;;;;;;;13.63;59.93;100486.69;4472839;32;35709;-83
2022/10/12 00:53:10;;;;;;;;;;;;;;;13.54;59.92;100494.00;4460818;32;26805;-83
2022/10/12 00:55:37;;;;;;;;;;;;;;;13.46;59.92;100486.38;4470319;32;19997;-84
2022/10/12 00:58:02;;;;;;;;;;;;;;;13.50;59.93;100488.03;4484995;32;19992;-83
2022/10/12 01:00:27;;;;;;;;;;;;;;;13.49;59.93;100496.78;4470515;32;19976;-83
2022/10/12 01:02:53;;;;;;;;;;;;;;;13.25;59.91;100502.75;4463721;32;28695;-83
2022/10/12 01:05:18;;;;;;;;;;;;;;;13.21;59.91;100491.53;4469246;32;19999;-83
2022/10/12 01:07:44;;;;;;;;;;;;;;;13.22;59.91;100493.25;4484722;32;19977;-83
2022/10/12 01:10:09;;;;;;;;;;;;;;;13.26;59.90;100501.87;4469401;32;36057;-83
2022/10/12 01:12:34;;;;;;;;;;;;;;;13.36;59.92;100503.28;4483640;32;20001;-83
2022/10/12 01:14:59;;;;;;;;;;;;;;;13.37;59.92;100497.16;4462849;32;20000;-83
2022/10/12 01:17:29;;;;;;;;;;;;;;;13.35;59.92;100510.28;4465668;32;31691;-83
2022/10/12 01:20:13;;;;;;;;;;;;;;;13.25;59.90;100514.09;4470202;32;19991;-83
2022/10/12 01:22:48;;;;;;;;;;;;;;;13.26;59.91;100507.09;4484747;32;19980;-83
2022/10/12 01:25:20;;;;;;;;;;;;;;;13.21;59.91;100518.53;4462614;32;19997;-83
2022/10/12 01:27:46;;;;;;;;;;;;;;;13.25;59.91;100519.31;4481703;32;19988;-83
2022/10/12 01:30:15;;;;;;;;;;;;;;;13.29;59.91;100515.69;4475710;32;19980;-83
2022/10/12 01:32:43;;;;;;;;;;;;;;;13.32;59.91;100522.59;4452371;32;19980;-84
2022/10/12 01:35:10;;;;;;;;;;;;;;;13.28;59.91;100520.97;4471367;32;20003;-83
2022/10/12 01:37:59;;;;;;;;;;;;;;;13.33;59.91;100524.28;4484473;32;19972;-83
2022/10/12 01:40:38;;;;;;;;;;;;;;;13.32;59.91;100520.84;4463611;32;19988;-84
2022/10/12 01:43:03;;;;;;;;;;;;;;;13.26;59.91;100528.00;4460366;32;20007;-84
2022/10/12 01:45:29;;;;;;;;;;;;;;;13.29;59.91;100525.31;4456996;32;29333;-84
2022/10/12 01:47:54;;;;;;;;;;;;;;;13.47;59.92;100520.34;4460805;32;33738;-83
2022/10/12 01:50:20;;;;;;;;;;;;;;;13.29;59.91;100520.06;4481118;32;20011;-83
2022/10/12 01:52:54;;;;;;;;;;;;;;;13.37;59.92;100523.28;4477630;32;20007;-83
2022/10/12 01:55:25;;;;;;;;;;;;;;;13.40;59.91;100526.66;4468274;32;20033;-83
2022/10/12 01:58:00;;;;;;;;;;;;;;;13.52;59.93;100523.69;4474900;32;19984;-83
2022/10/12 02:00:25;;;;;;;;;;;;;;;13.58;59.93;100522.63;4458596;32;20032;-83
2022/10/12 02:03:09;;;;;;;;;;;;;;;13.55;59.92;100524.47;4483201;32;37089;-83
2022/10/12 02:05:37;;;;;;;;;;;;;;;13.45;59.92;100532.59;4484234;32;20032;-83
2022/10/12 02:08:04;;;;;;;;;;;;;;;13.49;59.93;100520.31;4478276;32;19977;-84
2022/10/12 02:10:32;;;;;;;;;;;;;;;13.51;59.93;100528.97;4454456;32;19987;-83
2022/10/12 02:12:57;;;;;;;;;;;;;;;13.45;59.92;100519.53;4468386;32;19957;-84
2022/10/12 02:15:23;;;;;;;;;;;;;;;13.55;59.92;100521.87;4448309;32;20000;-83
2022/10/12 02:17:48;;;;;;;;;;;;;;;13.59;59.93;100519.09;4451821;32;20266;-83
2022/10/12 02:20:14;;;;;;;;;;;;;;;13.43;59.92;100521.34;4462213;32;19968;-83
2022/10/12 02:22:39;;;;;;;;;;;;;;;13.51;59.93;100521.97;4467412;32;20294;-83
2022/10/12 02:25:05;;;;;;;;;;;;;;;13.38;59.92;100525.00;4462695;32;20378;-83
2022/10/12 02:27:31;;;;;;;;;;;;;;;13.37;59.92;100518.06;4456210;32;19999;-83
2022/10/12 02:29:56;;;;;;;;;;;;;;;13.49;59.93;100521.16;4464429;32;19965;-83
2022/10/12 02:32:36;;;;;;;;;;;;;;;13.59;59.93;100515.63;4454564;32;19992;-84
2022/10/12 02:35:06;;;;;;;;;;;;;;;13.58;59.93;100517.38;4458348;32;19992;-83
2022/10/12 02:37:31;;;;;;;;;;;;;;;13.52;59.93;100514.97;4458222;32;19995;-83
2022/10/12 02:40:00;;;;;;;;;;;;;;;13.68;59.93;100510.94;4485547;32;20340;-83
2022/10/12 02:42:27;;;;;;;;;;;;;;;13.67;59.93;100505.75;4485714;32;20003;-83
2022/10/12 02:44:52;;;;;;;;;;;;;;;13.58;59.93;100514.78;4471343;32;20665;-83
2022/10/12 02:47:18;;;;;;;;;;;;;;;13.60;59.93;100506.88;4460131;32;20351;-83
2022/10/12 02:49:43;;;;;;;;;;;;;;;13.45;59.92;100511.69;4458148;32;20361;-83
2022/10/12 02:52:08;;;;;;;;;;;;;;;13.32;59.91;100520.84;4460199;32;19972;-83
2022/10/12 02:54:33;;;;;;;;;;;;;;;13.35;59.92;100523.34;4463372;32;30845;-84
2022/10/12 02:56:58;;;;;;;;;;;;;;;13.58;59.93;100527.00;4453304;32;35198;-84
2022/10/12 02:59:24;;;;;;;;;;;;;;;13.35;59.92;100525.09;4485514;32;20012;-82
2022/10/12 03:01:49;;;;;;;;;;;;;;;13.34;59.92;100523.41;4471203;32;19985;-83
2022/10/12 03:04:14;;;;;;;;;;;;;;;13.12;59.90;100524.00;4474092;32;19980;-84
2022/10/12 03:06:41;;;;;;;;;;;;;;;13.09;59.90;100528.47;4470944;32;20028;-83
2022/10/12 03:09:06;;;;;;;;;;;;;;;13.04;59.90;100515.56;4471200;32;19968;-83
2022/10/12 03:11:31;;;;;;;;;;;;;;;13.02;59.89;100530.44;4471182;32;20036;-83
2022/10/12 03:13:57;;;;;;;;;;;;;;;12.93;59.89;100527.22;4459412;32;19991;-83
2022/10/12 03:16:22;;;;;;;;;;;;;;;13.00;59.90;100534.81;4474350;32;33447;-83
2022/10/12 03:18:47;;;;;;;;;;;;;;;13.18;59.90;100533.44;4485479;32;19981;-83
2022/10/12 03:21:12;;;;;;;;;;;;;;;13.05;59.90;100532.09;4466743;32;27882;-83
2022/10/12 03:23:38;;;;;;;;;;;;;;;12.98;59.89;100536.63;4477313;32;30418;-83
2022/10/12 03:26:03;;;;;;;;;;;;;;;12.92;59.89;100536.81;4473272;32;36953;-82
2022/10/12 03:28:28;;;;;;;;;;;;;;;13.03;59.89;100531.28;4478920;32;19968;-83
2022/10/12 03:30:53;;;;;;;;;;;;;;;12.85;59.88;100524.81;4471542;32;32395;-83
2022/10/12 03:33:19;;;;;;;;;;;;;;;12.83;59.89;100529.25;4483231;32;23816;-83
2022/10/12 03:35:44;;;;;;;;;;;;;;;12.69;59.88;100537.47;4475872;32;19992;-83
2022/10/12 03:38:09;;;;;;;;;;;;;;;12.83;59.89;100532.72;4489140;32;19980;-83
2022/10/12 03:40:35;;;;;;;;;;;;;;;13.00;59.90;100528.72;4466185;32;20079;-83
2022/10/12 03:43:00;;;;;;;;;;;;;;;12.85;59.88;100530.06;4476701;32;19972;-84
2022/10/12 03:45:25;;;;;;;;;;;;;;;12.91;59.89;100532.47;4480293;32;19983;-84
2022/10/12 03:47:50;;;;;;;;;;;;;;;12.94;59.89;100531.53;4454802;32;25368;-83
2022/10/12 03:50:16;;;;;;;;;;;;;;;13.03;59.89;100534.75;4466634;32;29030;-84
2022/10/12 03:52:41;;;;;;;;;;;;;;;13.07;59.90;100525.91;4484981;32;20372;-84
2022/10/12 03:55:06;;;;;;;;;;;;;;;13.00;59.90;100533.97;4470054;32;34987;-84
2022/10/12 03:57:31;;;;;;;;;;;;;;;12.90;59.89;100533.38;4485274;32;20305;-84
2022/10/12 03:59:57;;;;;;;;;;;;;;;13.02;59.89;100526.97;4476167;32;19991;-84
2022/10/12 04:02:22;;;;;;;;;;;;;;;13.07;59.90;100527.66;4478510;32;26644;-83
2022/10/12 04:04:47;;;;;;;;;;;;;;;13.05;59.90;100525.09;4461349;32;20041;-85
2022/10/12 04:07:12;;;;;;;;;;;;;;;13.06;59.90;100524.22;4469950;32;20597;-83
2022/10/12 04:09:37;;;;;;;;;;;;;;;12.99;59.90;100521.78;4468228;32;33577;-84
2022/10/12 04:12:03;;;;;;;;;;;;;;;12.97;59.90;100514.00;4459760;32;20239;-84
2022/10/12 04:14:28;;;;;;;;;;;;;;;12.85;59.89;100525.69;4472561;32;19979;-84
2022/10/12 04:16:53;;;;;;;;;;;;;;;12.90;59.89;100520.31;4456904;32;20500;-85
2022/10/12 04:19:19;;;;;;;;;;;;;;;12.89;59.88;100529.06;4458692;32;20324;-86
2022/10/12 04:21:44;;;;;;;;;;;;;;;12.97;59.90;100529.69;4470563;32;20011;-86
2022/10/12 04:24:09;;;;;;;;;;;;;;;12.79;59.88;100525.88;4470516;32;19999;-85
2022/10/12 04:26:34;;;;;;;;;;;;;;;12.87;59.89;100533.47;4484956;32;19992;-85
2022/10/12 04:28:59;;;;;;;;;;;;;;;12.84;59.89;100530.97;4483281;32;25683;-84
2022/10/12 04:31:25;;;;;;;;;;;;;;;12.85;59.89;100530.91;4474251;32;30908;-84
2022/10/12 04:33:55;;;;;;;;;;;;;;;12.84;59.89;100529.19;4474532;32;20321;-87
2022/10/12 04:36:20;;;;;;;;;;;;;;;12.73;59.88;100533.00;4455146;32;20018;-85
2022/10/12 04:38:45;;;;;;;;;;;;;;;12.89;59.88;100534.28;4455197;32;19981;-85
2022/10/12 04:41:10;;;;;;;;;;;;;;;12.91;59.89;100525.50;4462746;32;33955;-86
2022/10/12 04:43:36;;;;;;;;;;;;;;;12.91;59.89;100537.72;4456036;32;34856;-85
2022/10/12 04:46:01;;;;;;;;;;;;;;;12.88;59.90;100538.66;4470234;32;31056;-86
2022/10/12 04:48:26;;;;;;;;;;;;;;;13.11;59.90;100539.75;4452207;32;39514;-85
2022/10/12 04:50:52;;;;;;;;;;;;;;;12.90;59.89;100533.38;4452230;32;20003;-85
2022/10/12 04:53:17;;;;;;;;;;;;;;;12.99;59.90;100537.47;4463792;32;20026;-85
2022/10/12 04:55:42;;;;;;;;;;;;;;;12.93;59.89;100540.28;4473812;32;20033;-85
2022/10/12 04:58:07;;;;;;;;;;;;;;;12.99;59.90;100538.34;4484168;32;30722;-85
2022/10/12 05:00:33;;;;;;;;;;;;;;;13.00;59.90;100534.81;4484770;32;20043;-85
2022/10/12 05:02:58;;;;;;;;;;;;;;;12.93;59.89;100548.97;4458041;32;22560;-86
2022/10/12 05:05:23;;;;;;;;;;;;;;;12.88;59.90;100554.34;4461832;32;34984;-86
2022/10/12 05:07:48;;;;;;;;;;;;;;;12.73;59.89;100544.31;4479768;32;20036;-86
2022/10/12 05:10:14;;;;;;;;;;;;;;;12.75;59.89;100542.50;4471599;32;20029;-85
2022/10/12 05:12:39;;;;;;;;;;;;;;;12.86;59.89;100547.44;4443576;32;20037;-85
2022/10/12 05:15:04;;;;;;;;;;;;;;;12.76;59.89;100553.81;4462534;32;19992;-87
2022/10/12 05:17:29;;;;;;;;;;;;;;;12.79;59.88;100554.59;4448978;32;20436;-86
2022/10/12 05:19:55;;;;;;;;;;;;;;;13.00;59.89;100557.47;4463466;32;20020;-85
2022/10/12 05:22:20;;;;;;;;;;;;;;;12.98;59.90;100551.44;4467923;32;31165;-86
2022/10/12 05:24:45;;;;;;;;;;;;;;;13.05;59.90;100548.63;4452900;32;40020;-86
2022/10/12 05:27:10;;;;;;;;;;;;;;;12.94;59.89;100548.06;4462090;32;31526;-85
2022/10/12 05:29:36;;;;;;;;;;;;;;;12.92;59.89;100549.88;4472418;32;19992;-84
2022/10/12 05:32:01;;;;;;;;;;;;;;;12.93;59.89;100556.81;4486180;32;34353;-86
2022/10/12 05:34:26;;;;;;;;;;;;;;;13.06;59.90;100558.19;4463188;32;32118;-86
2022/10/12 05:36:51;;;;;;;;;;;;;;;13.13;59.91;100557.09;4481228;32;35701;-84
2022/10/12 05:39:16;;;;;;;;;;;;;;;13.31;59.91;100554.88;4475285;32;29571;-84
2022/10/12 05:41:42;;;;;;;;;;;;;;;13.48;59.92;100557.81;4484561;32;20014;-84
2022/10/12 05:44:07;;;;;;;;;;;;;;;13.44;59.92;100564.03;4457286;32;20319;-84
2022/10/12 05:46:32;;;;;;;;;;;;;;;13.61;59.93;100566.13;4446670;32;19961;-84
2022/10/12 05:48:57;;;;;;;;;;;;;;;13.68;59.93;100568.50;4468730;32;29048;-84
2022/10/12 05:51:23;;;;;;;;;;;;;;;13.82;59.94;100568.94;4453406;32;37400;-84
2022/10/12 05:53:48;;;;;;;;;;;;;;;14.20;59.96;100556.34;4454308;32;19996;-84
2022/10/12 05:56:13;;;;;;;;;;;;;;;14.41;59.98;100559.97;4468608;32;38614;-84
2022/10/12 05:58:38;;;;;;;;;;;;;;;14.52;59.98;100562.25;4483770;32;19983;-85
2022/10/12 06:01:06;;;;;;;;;;;;;;;14.65;59.99;100556.50;4484365;32;20668;-84
2022/10/12 06:03:32;;;;;;;;;;;;;;;14.77;59.98;100559.63;4461925;32;20101;-85
2022/10/12 06:05:57;;;;;;;;;;;;;;;14.94;60.00;100563.34;4485136;32;19998;-83
2022/10/12 06:08:22;;;;;;;;;;;;;;;15.09;60.00;100566.28;4471587;32;20334;-84
2022/10/12 06:10:49;;;;;;;;;;;;;;;15.38;60.02;100557.28;4457260;32;28762;-83
2022/10/12 06:13:16;;;;;;;;;;;;;;;15.58;60.03;100568.75;4464108;32;19992;-84
2022/10/12 06:15:43;;;;;;;;;;;;;;;15.83;60.05;100563.38;4464617;32;20020;-86
2022/10/12 06:18:08;;;;;;;;;;;;;;;15.91;60.05;100565.72;4461759;32;19980;-84
2022/10/12 06:20:33;;;;;;;;;;;;;;;16.12;60.06;100566.59;4485590;32;24918;-85
2022/10/12 06:22:58;;;;;;;;;;;;;;;16.12;60.06;100564.81;4471490;32;19992;-84
2022/10/12 06:25:23;;;;;;;;;;;;;;;16.28;60.08;100567.62;4486691;32;19981;-84
2022/10/12 06:27:49;;;;;;;;;;;;;;;16.47;60.08;100570.34;4485352;32;30877;-84
2022/10/12 06:30:14;;;;;;;;;;;;;;;16.48;60.08;100572.91;4459990;32;35100;-84
2022/10/12 06:32:39;;;;;;;;;;;;;;;16.62;60.08;100569.69;4474121;32;31160;-85
2022/10/12 06:35:05;;;;;;;;;;;;;;;16.68;60.09;100569.44;4456945;32;20059;-85
2022/10/12 06:37:30;;;;;;;;;;;;;;;16.79;60.10;100572.44;4476813;32;20030;-85
2022/10/12 06:39:55;;;;;;;;;;;;;;;16.86;60.10;100571.25;4479133;32;20003;-85
2022/10/12 06:42:20;;;;;;;;;;;;;;;16.96;60.11;100576.09;4464112;32;19981;-85
2022/10/12 06:44:45;;;;;;;;;;;;;;;17.16;60.12;100579.53;4477000;32;27175;-85
2022/10/12 06:47:11;;;;;;;;;;;;;;;17.06;60.11;100578.25;4453780;32;35839;-84
2022/10/12 06:49:36;;;;;;;;;;;;;;;17.17;60.12;100573.34;4461094;32;24047;-85
2022/10/12 06:52:01;;;;;;;;;;;;;;;17.34;60.13;100579.63;4458265;32;20431;-85
2022/10/12 06:54:26;;;;;;;;;;;;;;;17.43;60.13;100582.66;4468477;32;33314;-85
2022/10/12 06:56:52;;;;;;;;;;;;;;;17.56;60.14;100574.19;4457630;32;22686;-84
2022/10/12 06:59:18;;;;;;;;;;;;;;;17.52;60.13;100580.53;4453461;32;20015;-84
2022/10/12 07:01:43;;;;;;;;;;;;;;;17.56;60.14;100585.56;4467932;32;19977;-84
2022/10/12 07:04:08;;;;;;;;;;;;;;;17.70;60.13;100582.31;4464254;32;20034;-83
2022/10/12 07:06:33;;;;;;;;;;;;;;;17.75;60.15;100583.81;4453576;32;20030;-83
2022/10/12 07:09:00;;;;;;;;;;;;;;;17.90;60.15;100581.34;4479204;32;30727;-83
2022/10/12 07:11:25;;;;;;;;;;;;;;;17.89;60.15;100580.47;4457548;32;20016;-84
2022/10/12 07:13:50;;;;;;;;;;;;;;;17.99;60.16;100581.75;4470439;32;35680;-84
2022/10/12 07:16:15;;;;;;;;;;;;;;;18.00;60.17;100575.56;4469248;32;26369;-84
2022/10/12 07:18:40;;;;;;;;;;;;;;;18.05;60.16;100573.53;4479303;32;20420;-85
2022/10/12 07:21:06;;;;;;;;;;;;;;;18.15;60.17;100571.28;4471190;32;19968;-85
2022/10/12 07:23:31;;;;;;;;;;;;;;;18.28;60.17;100576.81;4485635;32;20265;-83
2022/10/12 07:25:56;;;;;;;;;;;;;;;18.33;60.18;100569.50;4474583;32;20261;-83
2022/10/12 07:28:22;;;;;;;;;;;;;;;18.47;60.19;100568.81;4455304;32;27176;-84
2022/10/12 07:30:47;;;;;;;;;;;;;;;18.74;60.20;100563.91;4470255;32;20348;-83
2022/10/12 07:33:12;;;;;;;;;;;;;;;18.66;60.20;100570.44;4469178;32;34654;-84
2022/10/12 07:35:37;;;;;;;;;;;;;;;18.65;60.20;100566.09;4474988;32;28631;-84
2022/10/12 07:38:03;;;;;;;;;;;;;;;18.84;60.20;100571.25;4484747;32;29769;-83
2022/10/12 07:40:28;;;;;;;;;;;;;;;18.84;60.20;100571.25;4470859;32;20025;-84
2022/10/12 07:42:53;;;;;;;;;;;;;;;18.98;60.21;100567.88;4470788;32;20012;-83
2022/10/12 07:45:18;;;;;;;;;;;;;;;19.06;60.21;100572.75;4470972;32;20349;-84
2022/10/12 07:47:45;;;;;;;;;;;;;;;19.15;60.22;100567.81;4484776;32;27516;-83
2022/10/12 07:50:10;;;;;;;;;;;;;;;19.32;60.24;100572.16;4485253;32;20377;-83
2022/10/12 07:52:36;;;;;;;;;;;;;;;19.40;60.24;100571.75;4470928;32;20028;-84
2022/10/12 07:55:01;;;;;;;;;;;;;;;19.42;60.23;100569.91;4475322;32;20001;-84
2022/10/12 07:57:26;;;;;;;;;;;;;;;19.44;60.23;100566.22;4486561;32;19989;-83
2022/10/12 07:59:51;;;;;;;;;;;;;;;19.61;60.25;100566.16;4487513;32;32854;-84
2022/10/12 08:02:17;;;;;;;;;;;;;;;19.64;60.25;100567.78;4468861;32;20012;-83
2022/10/12 08:04:42;;;;;;;;;;;;;;;19.82;60.25;100560.59;4475613;32;37402;-84
2022/10/12 08:07:07;;;;;;;;;;;;;;;19.86;60.27;100570.03;4469808;32;37220;-83
2022/10/12 08:09:34;;;;;;;;;;;;;;;20.16;60.28;100570.91;4484251;32;33371;-83
2022/10/12 08:12:00;;;;;;;;;;;;;;;20.19;60.28;100565.44;4485215;32;19973;-84
2022/10/12 08:14:25;;;;;;;;;;;;;;;20.24;60.29;100567.81;4470704;32;19988;-84
2022/10/12 08:16:50;;;;;;;;;;;;;;;20.45;60.29;100565.72;4476063;32;26956;-84
2022/10/12 08:19:15;;;;;;;;;;;;;;;20.61;60.30;100563.88;4479567;32;25750;-84
2022/10/12 08:21:41;;;;;;;;;;;;;;;20.75;60.31;100573.59;4461122;32;22141;-84
2022/10/12 08:24:07;;;;;;;;;;;;;;;20.74;60.31;100566.59;4473934;32;20004;-84
2022/10/12 08:26:32;;;;;;;;;;;;;;;20.98;60.32;100572.19;4470611;32;20003;-84
2022/10/12 08:28:57;;;;;;;;;;;;;;;21.01;60.33;100572.84;4469478;32;20016;-84
2022/10/12 08:31:22;;;;;;;;;;;;;;;20.95;60.32;100570.56;4444059;32;33997;-84
2022/10/12 08:33:48;;;;;;;;;;;;;;;21.10;60.33;100567.00;4474563;32;20012;-84
2022/10/12 08:36:13;;;;;;;;;;;;;;;21.28;60.34;100561.50;4478276;32;24232;-84
2022/10/12 08:38:38;;;;;;;;;;;;;;;21.38;60.35;100562.63;4470279;32;19984;-84
2022/10/12 08:41:06;;;;;;;;;;;;;;;21.38;60.34;100559.97;4477003;32;20289;-84
2022/10/12 08:43:50;;;;;;;;;;;;;;;21.48;60.35;100561.06;4467310;32;19985;-83
2022/10/12 08:46:17;;;;;;;;;;;;;;;21.31;60.33;100559.53;4476451;32;19984;-84
2022/10/12 08:48:45;;;;;;;;;;;;;;;21.43;60.35;100557.88;4454626;32;20336;-84
2022/10/12 08:51:13;;;;;;;;;;;;;;;21.53;60.35;100555.47;4477484;32;20297;-84
2022/10/12 08:53:59;;;;;;;;;;;;;;;21.57;60.35;100557.84;4451261;32;20007;-84
2022/10/12 08:56:24;;;;;;;;;;;;;;;21.75;60.36;100553.97;4466010;32;20037;-84
2022/10/12 08:58:50;;;;;;;;;;;;;;;21.84;60.37;100559.66;4470459;32;20297;-85
2022/10/12 09:01:27;;;;;;;;;;;;;;;21.85;60.36;100559.53;4470682;32;20011;-85
2022/10/12 09:04:08;;;;;;;;;;;;;;;21.99;60.37;100558.59;4470230;32;20607;-85
2022/10/12 09:06:53;;;;;;;;;;;;;;;22.11;60.38;100560.50;4449877;32;19988;-84
2022/10/12 09:09:18;;;;;;;;;;;;;;;21.82;60.37;100558.91;4468988;32;20040;-85
2022/10/12 09:11:59;;;;;;;;;;;;;;;22.10;60.39;100556.16;4476466;32;20027;-85
2022/10/12 09:14:25;;;;;;;;;;;;;;;22.26;60.40;100559.47;4466019;32;19999;-85
2022/10/12 09:16:51;;;;;;;;;;;;;;;22.13;60.38;100558.59;4441669;32;20149;-85
2022/10/12 09:19:20;;;;;;;;;;;;;;;22.28;60.40;100560.22;4465451;32;20387;-85
2022/10/12 09:21:48;;;;;;;;;;;;;;;22.34;60.40;100559.78;4476047;32;20388;-84
2022/10/12 09:24:21;;;;;;;;;;;;;;;22.18;60.39;100561.78;4475403;32;19989;-85
2022/10/12 09:26:47;;;;;;;;;;;;;;;22.10;60.39;100561.44;4462193;32;20007;-84
2022/10/12 09:29:25;;;;;;;;;;;;;;;22.39;60.40;100558.63;4467615;32;20052;-84
2022/10/12 09:32:05;;;;;;;;;;;;;;;22.51;60.41;100560.44;4477182;32;19972;-85
2022/10/12 09:34:30;;;;;;;;;;;;;;;22.53;60.41;100556.72;4474042;32;20290;-85
2022/10/12 09:36:56;;;;;;;;;;;;;;;22.44;60.40;100556.50;4451260;32;38689;-84
2022/10/12 09:39:23;;;;;;;;;;;;;;;22.56;60.40;100553.88;4441203;32;20089;-84
2022/10/12 09:41:48;;;;;;;;;;;;;;;22.60;60.41;100560.66;4453966;32;20040;-85
2022/10/12 09:44:25;;;;;;;;;;;;;;;22.65;60.42;100562.97;4454527;32;20036;-83
2022/10/12 09:46:54;;;;;;;;;;;;;;;22.71;60.41;100559.91;4463991;32;20020;-83
2022/10/12 09:49:20;;;;;;;;;;;;;;;22.64;60.42;100556.81;4468745;32;20366;-83
2022/10/12 09:51:46;;;;;;;;;;;;;;;22.84;60.43;100557.28;4465276;32;20435;-84
2022/10/12 09:54:17;;;;;;;;;;;;;;;22.77;60.42;100558.63;4483887;32;19980;-84
2022/10/12 09:56:45;;;;;;;;;;;;;;;22.81;60.43;100558.34;4454251;32;19989;-84
2022/10/12 09:59:19;;;;;;;;;;;;;;;23.04;60.44;100556.72;4469080;32;20337;-84
2022/10/12 10:02:03;;;;;;;;;;;;;;;22.89;60.43;100561.31;4469678;32;20246;-84
2022/10/12 10:04:29;;;;;;;;;;;;;;;22.84;60.42;100551.97;4473927;32;20331;-83
2022/10/12 10:06:54;;;;;;;;;;;;;;;22.89;60.43;100560.47;4484144;32;19992;-84
2022/10/12 10:09:34;;;;;;;;;;;;;;;23.03;60.44;100563.00;4457886;32;33419;-83
2022/10/12 10:12:18;;;;;;;;;;;;;;;22.99;60.44;100558.87;4484247;32;19988;-84
2022/10/12 10:14:43;;;;;;;;;;;;;;;22.93;60.43;100556.63;4459649;32;20059;-84
2022/10/12 10:17:12;;;;;;;;;;;;;;;22.61;60.41;100561.50;4469460;32;19981;-84
2022/10/12 10:19:37;;;;;;;;;;;;;;;22.66;60.42;100560.22;4483468;32;19977;-83
2022/10/12 10:22:04;;;;;;;;;;;;;;;23.00;60.43;100563.22;4482953;32;35475;-85
2022/10/12 10:24:29;;;;;;;;;;;;;;;22.95;60.44;100560.91;4469462;32;19984;-84
2022/10/12 10:26:59;;;;;;;;;;;;;;;23.17;60.45;100556.69;4483755;32;20364;-83
2022/10/12 10:29:27;;;;;;;;;;;;;;;23.40;60.45;100557.69;4456316;32;20014;-84
2022/10/12 10:32:10;;;;;;;;;;;;;;;23.43;60.46;100557.50;4483719;32;19965;-84
2022/10/12 10:34:35;;;;;;;;;;;;;;;23.38;60.46;100555.16;4459808;32;20007;-84
2022/10/12 10:37:00;;;;;;;;;;;;;;;23.42;60.45;100563.75;4456847;32;20004;-84
2022/10/12 10:39:46;;;;;;;;;;;;;;;23.45;60.46;100559.06;4468121;32;33793;-84
2022/10/12 10:42:11;;;;;;;;;;;;;;;23.47;60.46;100554.50;4471872;32;20321;-84
2022/10/12 10:44:36;;;;;;;;;;;;;;;23.56;60.46;100551.19;4469381;32;19980;-84
2022/10/12 10:47:03;;;;;;;;;;;;;;;23.82;60.48;100556.38;4471097;32;20012;-84
2022/10/12 10:49:34;;;;;;;;;;;;;;;23.94;60.48;100549.31;4472374;32;20329;-84
2022/10/12 10:51:59;;;;;;;;;;;;;;;23.88;60.48;100545.28;4478976;32;20568;-85
2022/10/12 10:54:26;;;;;;;;;;;;;;;23.97;60.49;100544.63;4465287;32;19989;-82
2022/10/12 10:56:56;;;;;;;;;;;;;;;23.99;60.49;100553.31;4451101;32;20673;-84
2022/10/12 10:59:34;;;;;;;;;;;;;;;24.14;60.50;100543.34;4471166;32;20026;-84
2022/10/12 11:02:18;;;;;;;;;;;;;;;24.09;60.49;100543.69;4460015;32;20093;-84
2022/10/12 11:04:45;;;;;;;;;;;;;;;23.96;60.48;100537.59;4478500;32;19981;-84
2022/10/12 11:07:16;;;;;;;;;;;;;;;24.13;60.50;100542.50;4442412;32;20377;-84
2022/10/12 11:09:42;;;;;;;;;;;;;;;23.97;60.49;100547.28;4461570;32;20003;-84
2022/10/12 11:12:08;;;;;;;;;;;;;;;24.06;60.49;100543.91;4485561;32;19987;-84
2022/10/12 11:14:34;;;;;;;;;;;;;;;23.73;60.48;100541.97;4474280;32;20043;-84
2022/10/12 11:17:03;;;;;;;;;;;;;;;23.78;60.47;100545.13;4461754;32;19985;-84
2022/10/12 11:19:42;;;;;;;;;;;;;;;23.84;60.48;100544.66;4458770;32;20009;-84
2022/10/12 11:22:11;;;;;;;;;;;;;;;23.78;60.48;100542.47;4471148;32;19980;-84
2022/10/12 11:24:40;;;;;;;;;;;;;;;23.67;60.47;100546.91;4470979;32;20012;-84
2022/10/12 11:27:26;;;;;;;;;;;;;;;23.95;60.48;100543.88;4449329;32;19993;-84
2022/10/12 11:29:52;;;;;;;;;;;;;;;24.07;60.50;100536.78;4478117;32;19965;-84
2022/10/12 11:32:23;;;;;;;;;;;;;;;24.27;60.51;100540.59;4453755;32;20040;-84
2022/10/12 11:34:50;;;;;;;;;;;;;;;24.39;60.51;100535.22;4474112;32;19985;-84
2022/10/12 11:37:19;;;;;;;;;;;;;;;24.30;60.51;100537.72;4469869;32;19984;-84
2022/10/12 11:39:45;;;;;;;;;;;;;;;24.16;60.50;100534.28;4462995;32;19973;-84
2022/10/12 11:42:11;;;;;;;;;;;;;;;24.29;60.51;100533.38;4453346;32;19988;-84
2022/10/12 11:44:40;;;;;;;;;;;;;;;24.33;60.51;100541.00;4455281;32;19989;-84
2022/10/12 11:47:17;;;;;;;;;;;;;;;24.47;60.52;100537.28;4465929;32;19997;-84
2022/10/12 11:49:56;;;;;;;;;;;;;;;24.17;60.50;100529.81;4455146;32;19985;-84
2022/10/12 11:52:21;;;;;;;;;;;;;;;24.17;60.50;100529.81;4446655;32;20527;-83
2022/10/12 11:54:48;;;;;;;;;;;;;;;24.28;60.50;100528.97;4448242;32;34964;-84
2022/10/12 11:57:15;;;;;;;;;;;;;;;24.29;60.51;100525.37;4471305;32;20081;-84
2022/10/12 11:59:41;;;;;;;;;;;;;;;24.03;60.49;100524.69;4470300;32;20313;-84
2022/10/12 12:02:11;;;;;;;;;;;;;;;24.14;60.51;100527.41;4484966;32;20100;-85
2022/10/12 12:04:37;;;;;;;;;;;;;;;23.92;60.49;100525.50;4470482;32;20003;-84
2022/10/12 12:07:04;;;;;;;;;;;;;;;24.13;60.50;100526.53;4459526;32;20303;-84
2022/10/12 12:09:33;;;;;;;;;;;;;;;24.31;60.51;100516.31;4459967;32;19995;-84
2022/10/12 12:12:09;;;;;;;;;;;;;;;24.42;60.51;100512.84;4485367;32;19991;-84
2022/10/12 12:14:47;;;;;;;;;;;;;;;24.19;60.50;100512.78;4474690;32;19984;-84
2022/10/12 12:17:12;;;;;;;;;;;;;;;24.53;60.52;100515.50;4487157;32;19985;-84
2022/10/12 12:19:38;;;;;;;;;;;;;;;24.56;60.52;100509.94;4473961;32;19988;-84
2022/10/12 12:22:18;;;;;;;;;;;;;;;24.55;60.52;100508.25;4461662;32;19973;-84
2022/10/12 12:24:49;;;;;;;;;;;;;;;24.57;60.52;100508.13;4473750;32;20006;-84
2022/10/12 12:27:28;;;;;;;;;;;;;;;24.45;60.52;100505.47;4470673;32;20027;-84
2022/10/12 12:29:54;;;;;;;;;;;;;;;24.44;60.52;100505.59;4450718;32;19977;-84
2022/10/12 12:32:19;;;;;;;;;;;;;;;24.47;60.52;100506.19;4465427;32;20004;-84
2022/10/12 12:35:03;;;;;;;;;;;;;;;24.11;60.49;100501.84;4454936;32;19989;-84
2022/10/12 12:37:29;;;;;;;;;;;;;;;24.16;60.50;100505.03;4461460;32;19988;-84